createdAt,value
2018-09-09T00:00:17.475Z,995.42
2018-09-09T00:01:17.466Z,995.43
2018-09-09T00:02:17.423Z,995.46
2018-09-09T00:03:17.413Z,995.43
2018-09-09T00:04:17.468Z,995.41
2018-09-09T00:05:17.458Z,995.41
2018-09-09T00:06:17.403Z,995.40
2018-09-09T00:07:17.369Z,995.41
2018-09-09T00:08:17.365Z,995.40
2018-09-09T00:09:17.353Z,995.39
2018-09-09T00:10:17.443Z,995.38
2018-09-09T00:11:17.352Z,995.43
2018-09-09T00:12:17.312Z,995.41
2018-09-09T00:13:17.305Z,995.39
2018-09-09T00:14:17.298Z,995.35
2018-09-09T00:15:17.290Z,995.38
2018-09-09T00:16:17.353Z,995.39
2018-09-09T00:17:17.270Z,995.41
2018-09-09T00:18:17.297Z,995.40
2018-09-09T00:19:17.261Z,995.41
2018-09-09T00:20:17.230Z,995.36
2018-09-09T00:21:17.333Z,995.38
2018-09-09T00:22:17.225Z,995.44
2018-09-09T00:23:17.201Z,995.50
2018-09-09T00:24:17.181Z,995.46
2018-09-09T00:25:17.265Z,995.50
2018-09-09T00:26:17.194Z,995.51
2018-09-09T00:27:17.173Z,995.39
2018-09-09T00:28:17.154Z,995.43
2018-09-09T00:29:17.135Z,995.41
2018-09-09T00:30:17.165Z,995.39
2018-09-09T00:31:17.122Z,995.32
2018-09-09T00:32:17.164Z,995.31
2018-09-09T00:33:17.090Z,995.34
2018-09-09T00:34:17.079Z,995.35
2018-09-09T00:35:17.071Z,995.39
2018-09-09T00:36:17.069Z,995.36
2018-09-09T00:37:17.247Z,995.40
2018-09-09T00:38:17.076Z,995.43
2018-09-09T00:39:17.026Z,995.41
2018-09-09T00:40:17.144Z,995.42
2018-09-09T00:41:17.021Z,995.40
2018-09-09T00:42:16.988Z,995.48
2018-09-09T00:43:17.025Z,995.39
2018-09-09T00:44:16.966Z,995.36
2018-09-09T00:45:16.967Z,995.44
2018-09-09T00:46:16.992Z,995.45
2018-09-09T00:47:16.934Z,995.45
2018-09-09T00:48:16.929Z,995.44
2018-09-09T00:49:16.969Z,995.40
2018-09-09T00:50:16.940Z,995.36
2018-09-09T00:51:17.029Z,995.39
2018-09-09T00:52:17.000Z,995.43
2018-09-09T00:53:16.962Z,995.42
2018-09-09T00:54:16.950Z,995.46
2018-09-09T00:55:16.852Z,995.47
2018-09-09T00:56:16.867Z,995.51
2018-09-09T00:57:16.834Z,995.52
2018-09-09T00:58:16.872Z,995.53
2018-09-09T00:59:16.828Z,995.53
2018-09-09T01:00:16.822Z,995.54
2018-09-09T01:01:16.795Z,995.52
2018-09-09T01:02:16.773Z,995.51
2018-09-09T01:03:17.081Z,995.52
2018-09-09T01:04:16.755Z,995.47
2018-09-09T01:05:16.791Z,995.49
2018-09-09T01:06:16.822Z,995.50
2018-09-09T01:07:16.736Z,995.52
2018-09-09T01:08:16.754Z,995.52
2018-09-09T01:09:16.699Z,995.55
2018-09-09T01:10:16.689Z,995.53
2018-09-09T01:11:16.704Z,995.55
2018-09-09T01:12:16.670Z,995.59
2018-09-09T01:13:16.699Z,995.56
2018-09-09T01:16:49.995Z,995.60
2018-09-09T01:17:50.022Z,995.56
2018-09-09T01:18:49.965Z,995.52
2018-09-09T01:19:50.158Z,995.55
2018-09-09T01:20:50.163Z,995.58
2018-09-09T01:21:49.977Z,995.57
2018-09-09T01:22:49.930Z,995.54
2018-09-09T01:23:49.940Z,995.54
2018-09-09T01:24:49.963Z,995.61
2018-09-09T01:25:49.908Z,995.63
2018-09-09T01:26:49.895Z,995.61
2018-09-09T01:27:49.897Z,995.60
2018-09-09T01:28:49.867Z,995.63
2018-09-09T01:29:49.854Z,995.55
2018-09-09T01:30:49.875Z,995.64
2018-09-09T01:31:49.850Z,995.57
2018-09-09T01:32:49.833Z,995.56
2018-09-09T01:33:49.813Z,995.53
2018-09-09T01:34:49.797Z,995.57
2018-09-09T01:35:49.787Z,995.57
2018-09-09T01:36:49.811Z,995.59
2018-09-09T01:37:49.776Z,995.63
2018-09-09T01:38:49.755Z,995.61
2018-09-09T01:39:49.763Z,995.61
2018-09-09T01:40:49.730Z,995.66
2018-09-09T01:41:49.717Z,995.61
2018-09-09T01:42:49.734Z,995.63
2018-09-09T01:43:49.759Z,995.58
2018-09-09T01:44:49.696Z,995.60
2018-09-09T01:45:49.677Z,995.57
2018-09-09T01:46:49.675Z,995.58
2018-09-09T01:47:49.682Z,995.54
2018-09-09T01:48:49.651Z,995.53
2018-09-09T01:49:49.631Z,995.58
2018-09-09T01:50:49.669Z,995.59
2018-09-09T01:51:49.619Z,995.53
2018-09-09T01:52:49.667Z,995.51
2018-09-09T01:53:49.661Z,995.50
2018-09-09T01:54:49.580Z,995.54
2018-09-09T01:55:49.602Z,995.48
2018-09-09T01:56:49.803Z,995.55
2018-09-09T01:57:49.601Z,995.51
2018-09-09T01:58:49.541Z,995.51
2018-09-09T01:59:49.625Z,995.54
2018-09-09T02:00:49.530Z,995.50
2018-09-09T02:01:49.509Z,995.56
2018-09-09T02:02:49.510Z,995.52
2018-09-09T02:03:49.486Z,995.53
2018-09-09T02:04:49.475Z,995.53
2018-09-09T02:05:49.477Z,995.58
2018-09-09T02:06:49.460Z,995.64
2018-09-09T02:07:49.678Z,995.67
2018-09-09T02:08:49.452Z,995.69
2018-09-09T02:09:49.452Z,995.68
2018-09-09T02:10:49.404Z,995.69
2018-09-09T02:11:49.406Z,995.69
2018-09-09T02:12:49.412Z,995.72
2018-09-09T02:13:49.385Z,995.65
2018-09-09T02:14:49.491Z,995.66
2018-09-09T02:15:49.377Z,995.63
2018-09-09T02:16:49.372Z,995.65
2018-09-09T02:17:49.374Z,995.66
2018-09-09T02:18:49.353Z,995.64
2018-09-09T02:19:49.307Z,995.62
2018-09-09T02:20:49.329Z,995.61
2018-09-09T02:21:49.329Z,995.62
2018-09-09T02:22:49.294Z,995.70
2018-09-09T02:23:49.272Z,995.67
2018-09-09T02:24:49.304Z,995.71
2018-09-09T02:25:49.357Z,995.75
2018-09-09T02:26:49.236Z,995.80
2018-09-09T02:27:49.289Z,995.83
2018-09-09T02:28:49.222Z,995.79
2018-09-09T02:29:49.208Z,995.82
2018-09-09T02:30:49.263Z,995.79
2018-09-09T02:31:49.212Z,995.83
2018-09-09T02:32:49.279Z,995.80
2018-09-09T02:33:49.157Z,995.79
2018-09-09T02:34:49.221Z,995.79
2018-09-09T02:35:49.148Z,995.77
2018-09-09T02:36:49.136Z,995.77
2018-09-09T02:37:49.130Z,995.78
2018-09-09T02:38:49.343Z,995.81
2018-09-09T02:39:49.103Z,995.80
2018-09-09T02:40:49.103Z,995.79
2018-09-09T02:41:49.113Z,995.83
2018-09-09T02:42:49.091Z,995.86
2018-09-09T02:43:49.184Z,995.88
2018-09-09T02:44:49.092Z,995.91
2018-09-09T02:45:49.064Z,995.91
2018-09-09T02:46:49.022Z,995.90
2018-09-09T02:47:49.054Z,995.94
2018-09-09T02:48:49.017Z,995.90
2018-09-09T02:49:49.004Z,995.94
2018-09-09T02:50:48.976Z,995.94
2018-09-09T02:51:49.005Z,995.91
2018-09-09T02:52:48.982Z,995.91
2018-09-09T02:53:48.964Z,995.95
2018-09-09T02:54:49.017Z,995.99
2018-09-09T02:55:48.923Z,995.96
2018-09-09T02:56:48.919Z,995.95
2018-09-09T02:57:48.928Z,995.95
2018-09-09T02:58:48.933Z,995.99
2018-09-09T02:59:48.896Z,995.95
2018-09-09T03:00:48.902Z,995.95
2018-09-09T03:01:48.900Z,995.95
2018-09-09T03:02:48.879Z,995.93
2018-09-09T03:03:48.863Z,995.87
2018-09-09T03:04:48.835Z,995.93
2018-09-09T03:05:48.837Z,995.92
2018-09-09T03:06:48.822Z,995.96
2018-09-09T03:07:48.816Z,995.94
2018-09-09T03:08:48.861Z,995.93
2018-09-09T03:09:48.787Z,995.99
2018-09-09T03:10:48.774Z,995.98
2018-09-09T03:11:48.781Z,995.99
2018-09-09T03:12:48.748Z,995.96
2018-09-09T03:13:48.742Z,995.99
2018-09-09T03:14:48.743Z,995.99
2018-09-09T03:15:48.768Z,996.00
2018-09-09T03:16:48.705Z,996.02
2018-09-09T03:17:48.820Z,996.00
2018-09-09T03:18:48.737Z,996.03
2018-09-09T03:19:48.702Z,996.03
2018-09-09T03:20:48.677Z,996.00
2018-09-09T03:21:48.645Z,995.97
2018-09-09T03:22:48.661Z,995.99
2018-09-09T03:23:48.721Z,995.98
2018-09-09T03:24:48.655Z,996.02
2018-09-09T03:25:48.683Z,995.99
2018-09-09T03:26:48.588Z,996.02
2018-09-09T03:27:48.577Z,996.00
2018-09-09T03:28:48.673Z,996.05
2018-09-09T03:29:48.580Z,996.06
2018-09-09T03:30:48.747Z,996.06
2018-09-09T03:31:48.539Z,996.04
2018-09-09T03:32:48.535Z,996.05
2018-09-09T03:33:48.827Z,996.02
2018-09-09T03:34:48.558Z,996.08
2018-09-09T03:35:48.489Z,996.12
2018-09-09T03:36:48.498Z,996.14
2018-09-09T03:37:48.473Z,996.18
2018-09-09T03:38:48.466Z,996.15
2018-09-09T03:39:48.476Z,996.16
2018-09-09T03:40:48.476Z,996.10
2018-09-09T03:41:48.428Z,996.08
2018-09-09T03:42:48.477Z,996.14
2018-09-09T03:43:48.410Z,996.10
2018-09-09T03:44:48.439Z,996.15
2018-09-09T03:45:48.387Z,996.07
2018-09-09T03:46:48.391Z,996.07
2018-09-09T03:47:48.375Z,996.07
2018-09-09T03:48:48.358Z,996.08
2018-09-09T03:49:48.417Z,996.03
2018-09-09T03:50:48.342Z,996.07
2018-09-09T03:51:48.337Z,996.10
2018-09-09T03:52:48.319Z,996.08
2018-09-09T03:53:48.566Z,996.12
2018-09-09T03:54:48.367Z,996.12
2018-09-09T03:55:48.323Z,996.14
2018-09-09T03:56:48.540Z,996.08
2018-09-09T03:57:48.255Z,996.09
2018-09-09T03:58:48.305Z,996.10
2018-09-09T03:59:48.723Z,996.09
2018-09-09T04:00:48.229Z,996.14
2018-09-09T04:01:48.275Z,996.13
2018-09-09T04:02:48.206Z,996.19
2018-09-09T04:03:48.192Z,996.16
2018-09-09T04:04:48.215Z,996.15
2018-09-09T04:05:48.206Z,996.18
2018-09-09T04:06:48.207Z,996.19
2018-09-09T04:07:48.165Z,996.17
2018-09-09T04:08:48.159Z,996.21
2018-09-09T04:09:48.198Z,996.23
2018-09-09T04:10:48.137Z,996.22
2018-09-09T04:11:48.108Z,996.27
2018-09-09T04:12:48.425Z,996.30
2018-09-09T04:13:48.092Z,996.27
2018-09-09T04:14:48.081Z,996.28
2018-09-09T04:15:48.256Z,996.29
2018-09-09T04:16:48.074Z,996.26
2018-09-09T04:17:48.042Z,996.24
2018-09-09T04:18:48.117Z,996.26
2018-09-09T04:19:48.021Z,996.27
2018-09-09T04:20:48.043Z,996.27
2018-09-09T04:21:48.006Z,996.22
2018-09-09T04:22:48.023Z,996.27
2018-09-09T04:23:47.992Z,996.28
2018-09-09T04:24:48.018Z,996.30
2018-09-09T04:25:48.026Z,996.27
2018-09-09T04:26:47.946Z,996.25
2018-09-09T04:27:47.936Z,996.31
2018-09-09T04:28:47.968Z,996.31
2018-09-09T04:29:47.926Z,996.29
2018-09-09T04:30:47.977Z,996.29
2018-09-09T04:31:47.918Z,996.35
2018-09-09T04:32:47.978Z,996.28
2018-09-09T04:33:47.900Z,996.31
2018-09-09T04:34:47.870Z,996.33
2018-09-09T04:35:48.004Z,996.37
2018-09-09T04:36:47.845Z,996.41
2018-09-09T04:37:47.841Z,996.37
2018-09-09T04:38:47.985Z,996.40
2018-09-09T04:39:47.823Z,996.38
2018-09-09T04:40:47.825Z,996.37
2018-09-09T04:41:47.915Z,996.38
2018-09-09T04:42:47.824Z,996.37
2018-09-09T04:43:47.789Z,996.34
2018-09-09T04:44:47.755Z,996.39
2018-09-09T04:45:47.796Z,996.40
2018-09-09T04:46:47.816Z,996.38
2018-09-09T04:47:47.724Z,996.39
2018-09-09T04:48:47.754Z,996.45
2018-09-09T04:49:47.742Z,996.46
2018-09-09T04:50:47.709Z,996.46
2018-09-09T04:51:47.736Z,996.49
2018-09-09T04:52:47.692Z,996.46
2018-09-09T04:53:47.780Z,996.49
2018-09-09T04:54:47.836Z,996.52
2018-09-09T04:55:47.663Z,996.55
2018-09-09T04:56:47.775Z,996.48
2018-09-09T04:57:47.747Z,996.51
2018-09-09T04:58:47.619Z,996.48
2018-09-09T04:59:47.606Z,996.52
2018-09-09T05:00:47.602Z,996.52
2018-09-09T05:01:47.605Z,996.48
2018-09-09T05:02:47.665Z,996.47
2018-09-09T05:03:47.567Z,996.44
2018-09-09T05:04:47.616Z,996.45
2018-09-09T05:05:47.531Z,996.47
2018-09-09T05:06:47.548Z,996.40
2018-09-09T05:07:47.515Z,996.43
2018-09-09T05:08:47.518Z,996.39
2018-09-09T05:09:47.576Z,996.43
2018-09-09T05:10:47.508Z,996.45
2018-09-09T05:11:47.488Z,996.43
2018-09-09T05:12:47.457Z,996.39
2018-09-09T05:13:47.455Z,996.45
2018-09-09T05:14:47.444Z,996.42
2018-09-09T05:15:47.431Z,996.46
2018-09-09T05:16:47.535Z,996.49
2018-09-09T05:17:47.402Z,996.48
2018-09-09T05:18:47.407Z,996.43
2018-09-09T05:19:47.393Z,996.44
2018-09-09T05:20:48.204Z,996.41
2018-09-09T05:21:47.390Z,996.47
2018-09-09T05:22:47.357Z,996.50
2018-09-09T05:23:47.405Z,996.42
2018-09-09T05:24:47.327Z,996.44
2018-09-09T05:25:47.340Z,996.48
2018-09-09T05:26:47.346Z,996.46
2018-09-09T05:27:47.324Z,996.44
2018-09-09T05:28:47.302Z,996.44
2018-09-09T05:29:47.279Z,996.46
2018-09-09T05:30:47.281Z,996.43
2018-09-09T05:31:47.253Z,996.45
2018-09-09T05:32:47.274Z,996.45
2018-09-09T05:33:47.398Z,996.52
2018-09-09T05:34:47.228Z,996.48
2018-09-09T05:35:47.251Z,996.52
2018-09-09T05:36:47.734Z,996.50
2018-09-09T05:37:47.211Z,996.55
2018-09-09T05:38:47.189Z,996.52
2018-09-09T05:39:47.214Z,996.54
2018-09-09T05:40:47.172Z,996.52
2018-09-09T05:41:47.146Z,996.55
2018-09-09T05:42:47.160Z,996.52
2018-09-09T05:43:47.178Z,996.55
2018-09-09T05:44:47.195Z,996.56
2018-09-09T05:45:47.167Z,996.53
2018-09-09T05:46:47.115Z,996.52
2018-09-09T05:47:47.106Z,996.54
2018-09-09T05:48:47.123Z,996.51
2018-09-09T05:49:47.061Z,996.55
2018-09-09T05:50:47.071Z,996.53
2018-09-09T05:51:47.054Z,996.57
2018-09-09T05:52:47.043Z,996.61
2018-09-09T05:53:47.029Z,996.62
2018-09-09T05:54:47.012Z,996.69
2018-09-09T05:55:47.007Z,996.63
2018-09-09T05:56:46.993Z,996.66
2018-09-09T05:57:47.113Z,996.66
2018-09-09T05:58:46.993Z,996.72
2018-09-09T05:59:46.951Z,996.65
2018-09-09T06:00:46.943Z,996.64
2018-09-09T06:01:46.980Z,996.65
2018-09-09T06:02:46.947Z,996.69
2018-09-09T06:03:46.941Z,996.67
2018-09-09T06:04:46.898Z,996.70
2018-09-09T06:05:46.904Z,996.67
2018-09-09T06:06:46.890Z,996.53
2018-09-09T06:07:46.881Z,996.51
2018-09-09T06:08:46.881Z,996.55
2018-09-09T06:09:46.993Z,996.52
2018-09-09T06:10:46.861Z,996.54
2018-09-09T06:11:46.823Z,996.60
2018-09-09T06:12:46.876Z,996.59
2018-09-09T06:13:46.821Z,996.57
2018-09-09T06:14:46.796Z,996.54
2018-09-09T06:15:47.730Z,996.57
2018-09-09T06:16:46.792Z,996.63
2018-09-09T06:17:46.855Z,996.59
2018-09-09T06:18:47.226Z,996.65
2018-09-09T06:19:46.741Z,996.59
2018-09-09T06:20:46.732Z,996.56
2018-09-09T06:21:46.736Z,996.55
2018-09-09T06:22:46.713Z,996.53
2018-09-09T06:23:46.712Z,996.49
2018-09-09T06:24:46.734Z,996.47
2018-09-09T06:25:46.681Z,996.47
2018-09-09T06:26:46.661Z,996.51
2018-09-09T06:27:46.658Z,996.48
2018-09-09T06:28:46.689Z,996.50
2018-09-09T06:29:46.634Z,996.48
2018-09-09T06:30:46.623Z,996.49
2018-09-09T06:31:46.622Z,996.46
2018-09-09T06:32:46.617Z,996.48
2018-09-09T06:33:46.644Z,996.53
2018-09-09T06:34:46.594Z,996.49
2018-09-09T06:35:46.573Z,996.45
2018-09-09T06:36:46.598Z,996.43
2018-09-09T06:37:46.549Z,996.43
2018-09-09T06:38:46.553Z,996.49
2018-09-09T06:39:46.553Z,996.47
2018-09-09T06:40:46.528Z,996.42
2018-09-09T06:41:46.508Z,996.43
2018-09-09T06:42:46.538Z,996.45
2018-09-09T06:43:46.511Z,996.42
2018-09-09T06:44:46.483Z,996.46
2018-09-09T06:45:46.463Z,996.44
2018-09-09T06:46:46.443Z,996.46
2018-09-09T06:47:46.434Z,996.45
2018-09-09T06:48:46.441Z,996.43
2018-09-09T06:49:46.525Z,996.41
2018-09-09T06:50:46.419Z,996.45
2018-09-09T06:51:46.401Z,996.47
2018-09-09T06:52:46.416Z,996.48
2018-09-09T06:53:46.367Z,996.49
2018-09-09T06:54:46.384Z,996.49
2018-09-09T06:55:46.417Z,996.52
2018-09-09T06:56:46.345Z,996.51
2018-09-09T06:57:46.494Z,996.46
2018-09-09T06:58:46.320Z,996.51
2018-09-09T06:59:46.324Z,996.46
2018-09-09T07:00:46.451Z,996.51
2018-09-09T07:01:46.286Z,996.51
2018-09-09T07:02:46.308Z,996.52
2018-09-09T07:03:46.284Z,996.52
2018-09-09T07:04:46.282Z,996.59
2018-09-09T07:05:46.253Z,996.57
2018-09-09T07:06:46.225Z,996.55
2018-09-09T07:07:46.215Z,996.53
2018-09-09T07:08:46.205Z,996.52
2018-09-09T07:09:46.252Z,996.55
2018-09-09T07:10:46.252Z,996.55
2018-09-09T07:11:46.433Z,996.54
2018-09-09T07:12:46.167Z,996.53
2018-09-09T07:13:46.179Z,996.56
2018-09-09T07:14:46.172Z,996.53
2018-09-09T07:15:46.132Z,996.53
2018-09-09T07:16:46.160Z,996.53
2018-09-09T07:17:46.113Z,996.52
2018-09-09T07:18:46.101Z,996.58
2018-09-09T07:19:46.101Z,996.54
2018-09-09T07:20:46.097Z,996.62
2018-09-09T07:21:46.086Z,996.61
2018-09-09T07:22:46.147Z,996.57
2018-09-09T07:23:46.094Z,996.57
2018-09-09T07:24:46.092Z,996.54
2018-09-09T07:25:46.065Z,996.58
2018-09-09T07:26:46.008Z,996.56
2018-09-09T07:27:46.024Z,996.52
2018-09-09T07:28:45.987Z,996.60
2018-09-09T07:29:46.047Z,996.60
2018-09-09T07:30:45.985Z,996.61
2018-09-09T07:31:45.961Z,996.61
2018-09-09T07:32:45.947Z,996.56
2018-09-09T07:33:45.934Z,996.66
2018-09-09T07:34:45.929Z,996.64
2018-09-09T07:35:45.999Z,996.78
2018-09-09T07:36:45.977Z,996.61
2018-09-09T07:37:45.910Z,996.70
2018-09-09T07:38:45.891Z,996.76
2018-09-09T07:39:45.950Z,996.68
2018-09-09T07:40:45.891Z,996.70
2018-09-09T07:41:45.883Z,996.71
2018-09-09T07:42:46.052Z,996.80
2018-09-09T07:43:45.833Z,996.71
2018-09-09T07:44:45.817Z,996.79
2018-09-09T07:45:45.828Z,996.78
2018-09-09T07:46:45.801Z,996.70
2018-09-09T07:47:45.799Z,996.79
2018-09-09T07:48:45.845Z,996.77
2018-09-09T07:49:45.776Z,996.81
2018-09-09T07:50:45.812Z,996.81
2018-09-09T07:51:45.756Z,996.78
2018-09-09T07:52:45.744Z,996.76
2018-09-09T07:53:45.717Z,996.80
2018-09-09T07:54:45.707Z,996.78
2018-09-09T07:55:45.714Z,996.76
2018-09-09T07:56:45.736Z,996.77
2018-09-09T07:57:45.691Z,996.84
2018-09-09T07:58:45.677Z,996.82
2018-09-09T07:59:45.650Z,996.77
2018-09-09T08:00:45.655Z,996.85
2018-09-09T08:01:45.633Z,996.82
2018-09-09T08:02:45.655Z,996.80
2018-09-09T08:03:45.637Z,996.86
2018-09-09T08:04:45.650Z,996.83
2018-09-09T08:05:45.602Z,996.76
2018-09-09T08:06:45.590Z,996.82
2018-09-09T08:07:45.564Z,996.81
2018-09-09T08:08:45.585Z,996.81
2018-09-09T08:09:45.571Z,996.84
2018-09-09T08:10:45.598Z,996.85
2018-09-09T08:11:45.554Z,996.81
2018-09-09T08:12:45.547Z,996.79
2018-09-09T08:13:45.516Z,996.85
2018-09-09T08:14:45.530Z,996.88
2018-09-09T08:15:45.560Z,996.86
2018-09-09T08:16:45.499Z,996.91
2018-09-09T08:17:45.535Z,996.90
2018-09-09T08:18:45.934Z,996.91
2018-09-09T08:19:45.471Z,996.90
2018-09-09T08:20:45.491Z,996.81
2018-09-09T08:21:45.641Z,996.79
2018-09-09T08:22:45.429Z,996.75
2018-09-09T08:23:45.443Z,996.81
2018-09-09T08:24:45.387Z,996.81
2018-09-09T08:25:45.406Z,996.80
2018-09-09T08:26:45.387Z,996.83
2018-09-09T08:27:45.397Z,996.79
2018-09-09T08:28:45.343Z,996.82
2018-09-09T08:29:45.333Z,996.77
2018-09-09T08:30:45.339Z,996.80
2018-09-09T08:31:45.327Z,996.79
2018-09-09T08:32:45.373Z,996.73
2018-09-09T08:33:45.325Z,996.77
2018-09-09T08:34:45.409Z,996.81
2018-09-09T08:35:45.296Z,996.81
2018-09-09T08:36:45.323Z,996.78
2018-09-09T08:37:45.343Z,996.77
2018-09-09T08:38:45.543Z,996.80
2018-09-09T08:39:45.246Z,996.80
2018-09-09T08:40:45.215Z,996.77
2018-09-09T08:41:45.234Z,996.76
2018-09-09T08:42:45.223Z,996.81
2018-09-09T08:43:45.185Z,996.74
2018-09-09T08:44:45.202Z,996.80
2018-09-09T08:45:45.160Z,996.79
2018-09-09T08:46:45.163Z,996.78
2018-09-09T08:47:45.145Z,996.84
2018-09-09T08:48:45.129Z,996.77
2018-09-09T08:49:45.168Z,996.80
2018-09-09T08:50:45.138Z,996.82
2018-09-09T08:51:45.162Z,996.78
2018-09-09T08:52:45.103Z,996.74
2018-09-09T08:53:45.077Z,996.76
2018-09-09T08:54:45.062Z,996.73
2018-09-09T08:55:45.082Z,996.65
2018-09-09T08:56:45.102Z,996.67
2018-09-09T08:57:45.083Z,996.69
2018-09-09T08:58:45.030Z,996.70
2018-09-09T08:59:45.019Z,996.69
2018-09-09T09:00:45.007Z,996.75
2018-09-09T09:01:45.011Z,996.74
2018-09-09T09:02:44.994Z,996.75
2018-09-09T09:03:45.206Z,996.76
2018-09-09T09:04:44.965Z,996.73
2018-09-09T09:05:44.947Z,996.76
2018-09-09T09:06:45.345Z,996.77
2018-09-09T09:07:45.015Z,996.77
2018-09-09T09:08:44.946Z,996.73
2018-09-09T09:09:44.918Z,996.74
2018-09-09T09:10:44.922Z,996.73
2018-09-09T09:11:44.929Z,996.70
2018-09-09T09:12:44.895Z,996.69
2018-09-09T09:13:44.864Z,996.75
2018-09-09T09:14:44.936Z,996.67
2018-09-09T09:15:44.844Z,996.68
2018-09-09T09:16:44.899Z,996.71
2018-09-09T09:17:44.830Z,996.67
2018-09-09T09:18:44.812Z,996.67
2018-09-09T09:19:44.866Z,996.71
2018-09-09T09:20:44.944Z,996.64
2018-09-09T09:21:44.783Z,996.70
2018-09-09T09:22:44.795Z,996.72
2018-09-09T09:23:44.877Z,996.65
2018-09-09T09:24:44.749Z,996.71
2018-09-09T09:25:44.752Z,996.71
2018-09-09T09:26:44.747Z,996.67
2018-09-09T09:27:44.778Z,996.66
2018-09-09T09:28:44.762Z,996.59
2018-09-09T09:29:44.735Z,996.65
2018-09-09T09:30:44.795Z,996.65
2018-09-09T09:31:44.733Z,996.64
2018-09-09T09:32:44.694Z,996.60
2018-09-09T09:33:44.725Z,996.59
2018-09-09T09:34:44.705Z,996.61
2018-09-09T09:35:44.656Z,996.58
2018-09-09T09:36:44.705Z,996.66
2018-09-09T09:37:44.661Z,996.60
2018-09-09T09:38:44.633Z,996.64
2018-09-09T09:39:44.879Z,996.61
2018-09-09T09:40:44.613Z,996.58
2018-09-09T09:41:44.603Z,996.62
2018-09-09T09:42:44.819Z,996.59
2018-09-09T09:43:44.591Z,996.58
2018-09-09T09:44:44.619Z,996.58
2018-09-09T09:45:44.599Z,996.53
2018-09-09T09:46:44.537Z,996.56
2018-09-09T09:47:44.565Z,996.52
2018-09-09T09:48:44.523Z,996.56
2018-09-09T09:49:44.536Z,996.49
2018-09-09T09:50:44.586Z,996.54
2018-09-09T09:51:44.500Z,996.48
2018-09-09T09:52:44.477Z,996.48
2018-09-09T09:53:44.456Z,996.50
2018-09-09T09:54:44.496Z,996.48
2018-09-09T09:55:44.885Z,996.45
2018-09-09T09:56:44.461Z,996.39
2018-09-09T09:57:44.450Z,996.44
2018-09-09T09:58:44.490Z,996.43
2018-09-09T09:59:44.402Z,996.40
2018-09-09T10:00:44.416Z,996.39
2018-09-09T10:01:44.440Z,996.36
2018-09-09T10:02:44.371Z,996.39
2018-09-09T10:03:44.390Z,996.37
2018-09-09T10:04:44.356Z,996.34
2018-09-09T10:05:44.385Z,996.30
2018-09-09T10:06:44.321Z,996.37
2018-09-09T10:07:44.346Z,996.31
2018-09-09T10:08:44.315Z,996.31
2018-09-09T10:09:44.291Z,996.33
2018-09-09T10:10:44.287Z,996.28
2018-09-09T10:11:44.277Z,996.31
2018-09-09T10:12:44.285Z,996.30
2018-09-09T10:13:44.291Z,996.31
2018-09-09T10:14:44.254Z,996.22
2018-09-09T10:15:44.238Z,996.32
2018-09-09T10:16:44.252Z,996.35
2018-09-09T10:17:44.269Z,996.32
2018-09-09T10:18:44.270Z,996.28
2018-09-09T10:19:44.211Z,996.22
2018-09-09T10:20:44.195Z,996.26
2018-09-09T10:21:44.410Z,996.26
2018-09-09T10:22:44.175Z,996.29
2018-09-09T10:23:44.291Z,996.26
2018-09-09T10:24:44.174Z,996.26
2018-09-09T10:25:44.147Z,996.22
2018-09-09T10:26:44.156Z,996.24
2018-09-09T10:27:44.149Z,996.18
2018-09-09T10:28:44.118Z,996.20
2018-09-09T10:29:44.099Z,996.19
2018-09-09T10:30:44.101Z,996.22
2018-09-09T10:31:44.089Z,996.25
2018-09-09T10:32:44.085Z,996.24
2018-09-09T10:33:44.111Z,996.24
2018-09-09T10:34:44.084Z,996.19
2018-09-09T10:35:44.032Z,996.17
2018-09-09T10:36:44.038Z,996.22
2018-09-09T10:37:44.515Z,996.17
2018-09-09T10:38:44.062Z,996.19
2018-09-09T10:39:44.000Z,996.16
2018-09-09T10:40:44.271Z,996.13
2018-09-09T10:41:43.971Z,996.09
2018-09-09T10:42:43.960Z,996.16
2018-09-09T10:43:44.009Z,996.09
2018-09-09T10:44:43.943Z,996.07
2018-09-09T10:45:43.932Z,996.09
2018-09-09T10:46:44.061Z,996.11
2018-09-09T10:47:43.933Z,996.05
2018-09-09T10:48:43.954Z,996.03
2018-09-09T10:49:43.918Z,996.16
2018-09-09T10:50:43.908Z,996.14
2018-09-09T10:51:43.879Z,996.14
2018-09-09T10:52:43.983Z,996.14
2018-09-09T10:53:43.876Z,996.14
2018-09-09T10:54:43.873Z,996.09
2018-09-09T10:55:43.854Z,996.10
2018-09-09T10:56:43.888Z,996.14
2018-09-09T10:57:43.826Z,996.14
2018-09-09T10:58:43.827Z,996.11
2018-09-09T10:59:43.834Z,996.11
2018-09-09T11:00:43.838Z,996.15
2018-09-09T11:01:43.822Z,996.17
2018-09-09T11:02:43.803Z,996.15
2018-09-09T11:03:43.762Z,996.11
2018-09-09T11:04:43.787Z,996.16
2018-09-09T11:05:43.859Z,996.10
2018-09-09T11:06:43.922Z,996.06
2018-09-09T11:07:43.725Z,996.07
2018-09-09T11:08:43.835Z,996.07
2018-09-09T11:09:43.740Z,996.10
2018-09-09T11:10:43.696Z,996.09
2018-09-09T11:11:43.700Z,996.07
2018-09-09T11:12:43.785Z,996.03
2018-09-09T11:13:43.671Z,996.06
2018-09-09T11:14:43.685Z,996.05
2018-09-09T11:15:43.674Z,995.99
2018-09-09T11:16:43.766Z,995.97
2018-09-09T11:17:43.638Z,996.00
2018-09-09T11:18:43.690Z,996.01
2018-09-09T11:19:43.845Z,995.95
2018-09-09T11:20:43.591Z,995.95
2018-09-09T11:21:43.585Z,995.94
2018-09-09T11:22:43.687Z,995.96
2018-09-09T11:23:43.593Z,995.92
2018-09-09T11:24:43.629Z,995.93
2018-09-09T11:25:43.564Z,995.98
2018-09-09T11:26:43.552Z,996.01
2018-09-09T11:27:43.549Z,995.94
2018-09-09T11:28:43.543Z,995.97
2018-09-09T11:29:43.541Z,995.96
2018-09-09T11:30:43.519Z,995.93
2018-09-09T11:31:43.497Z,995.93
2018-09-09T11:32:43.484Z,995.92
2018-09-09T11:33:43.512Z,995.97
2018-09-09T11:34:43.511Z,995.98
2018-09-09T11:35:43.458Z,995.98
2018-09-09T11:36:43.434Z,995.95
2018-09-09T11:37:43.455Z,995.96
2018-09-09T11:38:43.444Z,995.97
2018-09-09T11:39:43.421Z,995.94
2018-09-09T11:40:43.432Z,995.95
2018-09-09T11:41:43.421Z,995.93
2018-09-09T11:42:43.377Z,995.89
2018-09-09T11:43:43.381Z,995.88
2018-09-09T11:44:43.384Z,995.87
2018-09-09T11:45:43.375Z,995.86
2018-09-09T11:46:43.365Z,995.86
2018-09-09T11:47:43.343Z,995.82
2018-09-09T11:48:43.371Z,995.87
2018-09-09T11:49:43.324Z,995.85
2018-09-09T11:50:43.310Z,995.86
2018-09-09T11:51:43.359Z,995.77
2018-09-09T11:52:43.285Z,995.81
2018-09-09T11:53:43.260Z,995.76
2018-09-09T11:54:43.260Z,995.78
2018-09-09T11:55:43.292Z,995.79
2018-09-09T11:56:43.251Z,995.84
2018-09-09T11:57:43.265Z,995.86
2018-09-09T11:58:43.227Z,995.79
2018-09-09T11:59:43.209Z,995.69
2018-09-09T12:00:43.289Z,995.70
2018-09-09T12:01:43.456Z,995.66
2018-09-09T12:02:43.172Z,995.65
2018-09-09T12:03:43.163Z,995.72
2018-09-09T12:04:43.342Z,995.70
2018-09-09T12:05:43.196Z,995.65
2018-09-09T12:06:43.122Z,995.68
2018-09-09T12:07:43.216Z,995.63
2018-09-09T12:08:43.159Z,995.66
2018-09-09T12:09:43.115Z,995.62
2018-09-09T12:10:43.116Z,995.64
2018-09-09T12:11:43.074Z,995.59
2018-09-09T12:12:43.113Z,995.56
2018-09-09T12:13:43.106Z,995.59
2018-09-09T12:14:43.061Z,995.56
2018-09-09T12:15:43.058Z,995.56
2018-09-09T12:16:43.037Z,995.54
2018-09-09T12:17:43.043Z,995.55
2018-09-09T12:18:43.040Z,995.52
2018-09-09T12:19:42.985Z,995.54
2018-09-09T12:20:43.011Z,995.53
2018-09-09T12:21:43.005Z,995.49
2018-09-09T12:22:42.980Z,995.53
2018-09-09T12:23:42.967Z,995.48
2018-09-09T12:24:42.979Z,995.47
2018-09-09T12:25:42.970Z,995.51
2018-09-09T12:26:42.958Z,995.50
2018-09-09T12:27:42.931Z,995.54
2018-09-09T12:28:42.923Z,995.56
2018-09-09T12:29:42.904Z,995.51
2018-09-09T12:30:42.902Z,995.52